Wilmington, Delaware
Current Conditions -  °F | °C
As of 10:51 PM on Saturday 22 Nov 2014 (Local Time) from KILG Reporting Station
Overcast Overcast  
Wind Chill: 38°   Ceiling: 10000
Heat Index: 42°   Visibility: 10mi
Dew Point: 23°   Wind: 7mph
Humidity: 47%   Direction: 200°SSW
Pressure: 30.27"   Gusts: NA
Location:  39.74°N, 75.55°W
Report Text: KILG 230351Z AUTO 20006KT 10SM BKN100 OVC120 06/M05 A3027 RMK AO2 SLP250 T00561050
Loading
Personal Weather Stations






























Interactive Weather Map New forecast layout! Learn more

10-Day Weather Forecast

Advertisements
Track Severe Weather on mobile